sensor_id;sensor_type;location;lat;lon;timestamp;temperature;humidity
51637;DHT22;37713;53.254;6.460;2023-04-02T00:02:54;3.00;99.90
51637;DHT22;37713;53.254;6.460;2023-04-02T00:05:27;3.00;99.90
51637;DHT22;37713;53.254;6.460;2023-04-02T00:08:21;2.90;99.90
51637;DHT22;37713;53.254;6.460;2023-04-02T00:10:50;2.90;99.90
51637;DHT22;37713;53.254;6.460;2023-04-02T00:15:46;2.80;99.90
51637;DHT22;37713;53.254;6.460;2023-04-02T00:18:19;2.80;99.90
51637;DHT22;37713;53.254;6.460;2023-04-02T00:21:18;2.70;99.90
51637;DHT22;37713;53.254;6.460;2023-04-02T00:23:45;2.70;99.90
51637;DHT22;37713;53.254;6.460;2023-04-02T00:28:49;2.60;99.90
51637;DHT22;37713;53.254;6.460;2023-04-02T00:31:17;2.60;99.90
51637;DHT22;37713;53.254;6.460;2023-04-02T00:33:43;2.50;99.90
51637;DHT22;37713;53.254;6.460;2023-04-02T00:36:10;2.50;99.90
51637;DHT22;37713;53.254;6.460;2023-04-02T00:38:36;2.50;99.90
51637;DHT22;37713;53.254;6.460;2023-04-02T00:41:06;2.40;99.90
51637;DHT22;37713;53.254;6.460;2023-04-02T00:43:35;2.40;99.90
51637;DHT22;37713;53.254;6.460;2023-04-02T00:46:07;2.40;99.90
51637;DHT22;37713;53.254;6.460;2023-04-02T00:48:41;2.30;99.90
51637;DHT22;37713;53.254;6.460;2023-04-02T00:51:29;2.50;99.90
51637;DHT22;37713;53.254;6.460;2023-04-02T00:54:00;2.30;99.90
51637;DHT22;37713;53.254;6.460;2023-04-02T00:56:39;2.30;99.90
51637;DHT22;37713;53.254;6.460;2023-04-02T00:59:19;2.30;99.90
51637;DHT22;37713;53.254;6.460;2023-04-02T01:01:51;2.20;99.90
51637;DHT22;37713;53.254;6.460;2023-04-02T01:04:32;2.20;99.90
51637;DHT22;37713;53.254;6.460;2023-04-02T01:07:04;2.10;99.90
51637;DHT22;37713;53.254;6.460;2023-04-02T01:25:21;1.90;99.90
51637;DHT22;37713;53.254;6.460;2023-04-02T01:28:21;1.90;99.90
51637;DHT22;37713;53.254;6.460;2023-04-02T01:30:52;1.90;99.90
51637;DHT22;37713;53.254;6.460;2023-04-02T01:33:22;1.80;99.90
51637;DHT22;37713;53.254;6.460;2023-04-02T01:38:40;1.80;99.90
51637;DHT22;37713;53.254;6.460;2023-04-02T01:41:15;1.80;99.90
51637;DHT22;37713;53.254;6.460;2023-04-02T01:44:02;1.80;99.90
51637;DHT22;37713;53.254;6.460;2023-04-02T01:46:32;1.70;99.90
51637;DHT22;37713;53.254;6.460;2023-04-02T01:49:09;1.70;99.90
51637;DHT22;37713;53.254;6.460;2023-04-02T01:51:41;1.70;99.90
51637;DHT22;37713;53.254;6.460;2023-04-02T01:54:07;1.70;99.90
51637;DHT22;37713;53.254;6.460;2023-04-02T01:56:33;1.70;99.90
51637;DHT22;37713;53.254;6.460;2023-04-02T01:59:00;1.60;99.90
51637;DHT22;37713;53.254;6.460;2023-04-02T02:01:41;1.60;99.90
51637;DHT22;37713;53.254;6.460;2023-04-02T02:04:11;1.60;99.90
51637;DHT22;37713;53.254;6.460;2023-04-02T02:06:38;1.60;99.90
51637;DHT22;37713;53.254;6.460;2023-04-02T02:09:05;1.50;99.90
51637;DHT22;37713;53.254;6.460;2023-04-02T02:11:33;1.50;99.90
51637;DHT22;37713;53.254;6.460;2023-04-02T02:14:07;1.50;99.90
51637;DHT22;37713;53.254;6.460;2023-04-02T02:16:37;1.40;99.90
51637;DHT22;37713;53.254;6.460;2023-04-02T02:19:21;1.50;99.90
51637;DHT22;37713;53.254;6.460;2023-04-02T02:21:54;1.40;99.90
51637;DHT22;37713;53.254;6.460;2023-04-02T02:24:31;1.50;99.90
51637;DHT22;37713;53.254;6.460;2023-04-02T02:29:53;1.30;99.90
51637;DHT22;37713;53.254;6.460;2023-04-02T02:32:21;1.20;99.90
51637;DHT22;37713;53.254;6.460;2023-04-02T02:34:53;1.30;99.90
51637;DHT22;37713;53.254;6.460;2023-04-02T02:37:23;1.30;99.90
51637;DHT22;37713;53.254;6.460;2023-04-02T02:39:54;1.20;99.90
51637;DHT22;37713;53.254;6.460;2023-04-02T02:42:31;1.20;99.90
51637;DHT22;37713;53.254;6.460;2023-04-02T02:44:59;1.20;99.90
51637;DHT22;37713;53.254;6.460;2023-04-02T02:47:28;1.10;99.90
51637;DHT22;37713;53.254;6.460;2023-04-02T02:49:58;1.20;99.90
51637;DHT22;37713;53.254;6.460;2023-04-02T02:52:27;1.10;99.90
51637;DHT22;37713;53.254;6.460;2023-04-02T02:55:22;1.10;99.90
51637;DHT22;37713;53.254;6.460;2023-04-02T03:00:33;1.00;99.90
51637;DHT22;37713;53.254;6.460;2023-04-02T03:03:03;1.00;99.90
51637;DHT22;37713;53.254;6.460;2023-04-02T03:05:29;1.00;99.90
51637;DHT22;37713;53.254;6.460;2023-04-02T03:07:57;1.00;99.90
51637;DHT22;37713;53.254;6.460;2023-04-02T03:13:19;1.00;99.90
51637;DHT22;37713;53.254;6.460;2023-04-02T03:18:35;0.90;99.90
51637;DHT22;37713;53.254;6.460;2023-04-02T03:21:22;0.90;99.90
51637;DHT22;37713;53.254;6.460;2023-04-02T03:23:56;0.90;99.90
51637;DHT22;37713;53.254;6.460;2023-04-02T03:26:39;0.90;99.90
51637;DHT22;37713;53.254;6.460;2023-04-02T03:29:18;0.90;99.90
51637;DHT22;37713;53.254;6.460;2023-04-02T03:31:58;0.90;99.90
51637;DHT22;37713;53.254;6.460;2023-04-02T03:42:14;0.90;99.90
51637;DHT22;37713;53.254;6.460;2023-04-02T03:47:18;0.90;99.90
51637;DHT22;37713;53.254;6.460;2023-04-02T03:49:59;0.80;99.90
51637;DHT22;37713;53.254;6.460;2023-04-02T03:52:26;0.90;99.90
51637;DHT22;37713;53.254;6.460;2023-04-02T03:54:57;0.90;99.90
51637;DHT22;37713;53.254;6.460;2023-04-02T03:57:42;0.80;99.90
51637;DHT22;37713;53.254;6.460;2023-04-02T04:02:50;0.80;99.90
51637;DHT22;37713;53.254;6.460;2023-04-02T04:05:27;0.80;99.90
51637;DHT22;37713;53.254;6.460;2023-04-02T04:07:59;0.80;99.90
51637;DHT22;37713;53.254;6.460;2023-04-02T04:10:26;0.80;99.90
51637;DHT22;37713;53.254;6.460;2023-04-02T04:12:55;0.70;99.90
51637;DHT22;37713;53.254;6.460;2023-04-02T04:15:24;0.70;99.90
51637;DHT22;37713;53.254;6.460;2023-04-02T04:18:06;0.70;99.90
51637;DHT22;37713;53.254;6.460;2023-04-02T04:20:42;0.70;99.90
51637;DHT22;37713;53.254;6.460;2023-04-02T04:23:18;0.80;99.90
51637;DHT22;37713;53.254;6.460;2023-04-02T04:31:23;0.70;99.90
51637;DHT22;37713;53.254;6.460;2023-04-02T04:33:58;0.70;99.90
51637;DHT22;37713;53.254;6.460;2023-04-02T04:36:35;0.70;99.90
51637;DHT22;37713;53.254;6.460;2023-04-02T04:39:11;0.70;99.90
51637;DHT22;37713;53.254;6.460;2023-04-02T04:41:41;0.70;99.90
51637;DHT22;37713;53.254;6.460;2023-04-02T04:47:25;0.60;99.90
51637;DHT22;37713;53.254;6.460;2023-04-02T04:52:56;0.60;99.90
51637;DHT22;37713;53.254;6.460;2023-04-02T04:55:40;0.60;99.90
51637;DHT22;37713;53.254;6.460;2023-04-02T05:09:19;0.50;99.90
51637;DHT22;37713;53.254;6.460;2023-04-02T05:14:56;0.50;99.90
51637;DHT22;37713;53.254;6.460;2023-04-02T05:17:41;0.50;99.90
51637;DHT22;37713;53.254;6.460;2023-04-02T05:20:20;0.50;99.90
51637;DHT22;37713;53.254;6.460;2023-04-02T05:22:52;0.50;99.90
51637;DHT22;37713;53.254;6.460;2023-04-02T05:25:25;0.50;99.90
51637;DHT22;37713;53.254;6.460;2023-04-02T05:28:13;0.50;99.90
51637;DHT22;37713;53.254;6.460;2023-04-02T05:30:54;0.70;99.90
51637;DHT22;37713;53.254;6.460;2023-04-02T05:38:34;0.60;99.90
51637;DHT22;37713;53.254;6.460;2023-04-02T05:41:21;0.60;99.90
51637;DHT22;37713;53.254;6.460;2023-04-02T05:43:50;0.70;99.90
51637;DHT22;37713;53.254;6.460;2023-04-02T05:46:24;0.70;99.90
51637;DHT22;37713;53.254;6.460;2023-04-02T05:48:56;0.70;99.90
51637;DHT22;37713;53.254;6.460;2023-04-02T05:51:56;0.80;99.90
51637;DHT22;37713;53.254;6.460;2023-04-02T05:54:39;0.80;99.90
51637;DHT22;37713;53.254;6.460;2023-04-02T05:57:12;0.80;99.90
51637;DHT22;37713;53.254;6.460;2023-04-02T05:59:43;0.90;99.90
51637;DHT22;37713;53.254;6.460;2023-04-02T06:05:20;1.00;99.90
51637;DHT22;37713;53.254;6.460;2023-04-02T06:07:48;1.10;99.90
51637;DHT22;37713;53.254;6.460;2023-04-02T06:10:22;1.20;99.90
51637;DHT22;37713;53.254;6.460;2023-04-02T06:12:56;1.60;99.90
51637;DHT22;37713;53.254;6.460;2023-04-02T06:15:29;1.90;99.90
51637;DHT22;37713;53.254;6.460;2023-04-02T06:17:59;2.10;99.90
51637;DHT22;37713;53.254;6.460;2023-04-02T06:20:26;2.70;99.90
51637;DHT22;37713;53.254;6.460;2023-04-02T06:23:12;2.90;99.90
51637;DHT22;37713;53.254;6.460;2023-04-02T06:28:39;3.00;99.90
51637;DHT22;37713;53.254;6.460;2023-04-02T06:31:11;3.30;99.90
51637;DHT22;37713;53.254;6.460;2023-04-02T06:33:39;3.70;99.90
51637;DHT22;37713;53.254;6.460;2023-04-02T06:36:06;4.20;99.90
51637;DHT22;37713;53.254;6.460;2023-04-02T06:38:34;4.00;99.90
51637;DHT22;37713;53.254;6.460;2023-04-02T06:41:10;5.20;99.90
51637;DHT22;37713;53.254;6.460;2023-04-02T06:46:30;5.90;99.90
51637;DHT22;37713;53.254;6.460;2023-04-02T06:49:24;6.20;99.90
51637;DHT22;37713;53.254;6.460;2023-04-02T06:51:54;6.40;99.90
51637;DHT22;37713;53.254;6.460;2023-04-02T06:54:20;6.40;99.90
51637;DHT22;37713;53.254;6.460;2023-04-02T06:56:51;6.80;99.90
51637;DHT22;37713;53.254;6.460;2023-04-02T06:59:18;7.60;99.90
51637;DHT22;37713;53.254;6.460;2023-04-02T07:01:55;8.30;99.90
51637;DHT22;37713;53.254;6.460;2023-04-02T07:04:22;8.60;99.90
51637;DHT22;37713;53.254;6.460;2023-04-02T07:06:49;8.60;99.90
51637;DHT22;37713;53.254;6.460;2023-04-02T07:09:15;9.10;99.90
51637;DHT22;37713;53.254;6.460;2023-04-02T07:11:41;9.80;99.90
51637;DHT22;37713;53.254;6.460;2023-04-02T07:14:10;9.80;99.90
51637;DHT22;37713;53.254;6.460;2023-04-02T07:16:37;9.50;99.90
51637;DHT22;37713;53.254;6.460;2023-04-02T07:19:03;8.90;99.90
51637;DHT22;37713;53.254;6.460;2023-04-02T07:21:29;9.20;99.90
51637;DHT22;37713;53.254;6.460;2023-04-02T07:23:55;8.90;99.90
51637;DHT22;37713;53.254;6.460;2023-04-02T07:26:24;8.80;99.90
51637;DHT22;37713;53.254;6.460;2023-04-02T07:28:53;8.20;99.90
51637;DHT22;37713;53.254;6.460;2023-04-02T07:31:25;7.80;99.90
51637;DHT22;37713;53.254;6.460;2023-04-02T07:33:58;7.30;99.90
51637;DHT22;37713;53.254;6.460;2023-04-02T07:36:25;6.90;99.90
51637;DHT22;37713;53.254;6.460;2023-04-02T07:38:51;6.60;99.90
51637;DHT22;37713;53.254;6.460;2023-04-02T07:41:18;6.40;99.90
51637;DHT22;37713;53.254;6.460;2023-04-02T07:43:45;6.30;99.90
51637;DHT22;37713;53.254;6.460;2023-04-02T07:46:12;6.10;99.90
51637;DHT22;37713;53.254;6.460;2023-04-02T07:48:41;5.90;99.90
51637;DHT22;37713;53.254;6.460;2023-04-02T07:51:22;5.70;99.90
51637;DHT22;37713;53.254;6.460;2023-04-02T07:53:48;5.60;99.90
51637;DHT22;37713;53.254;6.460;2023-04-02T07:56:18;5.60;99.90
51637;DHT22;37713;53.254;6.460;2023-04-02T07:58:45;5.70;99.90
51637;DHT22;37713;53.254;6.460;2023-04-02T08:01:17;5.50;99.90
51637;DHT22;37713;53.254;6.460;2023-04-02T08:03:43;5.50;99.90
51637;DHT22;37713;53.254;6.460;2023-04-02T08:06:09;5.30;99.90
51637;DHT22;37713;53.254;6.460;2023-04-02T08:08:36;5.40;99.90
51637;DHT22;37713;53.254;6.460;2023-04-02T08:11:02;5.40;99.90
51637;DHT22;37713;53.254;6.460;2023-04-02T08:13:28;5.20;99.90
51637;DHT22;37713;53.254;6.460;2023-04-02T08:15:57;5.10;99.90
51637;DHT22;37713;53.254;6.460;2023-04-02T08:18:23;5.20;99.90
51637;DHT22;37713;53.254;6.460;2023-04-02T08:20:49;5.30;99.90
51637;DHT22;37713;53.254;6.460;2023-04-02T08:23:15;5.40;99.90
51637;DHT22;37713;53.254;6.460;2023-04-02T08:25:43;5.50;99.90
51637;DHT22;37713;53.254;6.460;2023-04-02T08:28:09;5.50;99.90
51637;DHT22;37713;53.254;6.460;2023-04-02T08:30:35;5.60;99.90
51637;DHT22;37713;53.254;6.460;2023-04-02T08:33:02;5.50;99.90
51637;DHT22;37713;53.254;6.460;2023-04-02T08:35:28;5.80;99.90
51637;DHT22;37713;53.254;6.460;2023-04-02T08:37:57;6.30;99.90
51637;DHT22;37713;53.254;6.460;2023-04-02T08:46:25;7.90;99.90
51637;DHT22;37713;53.254;6.460;2023-04-02T08:48:55;8.40;99.90
51637;DHT22;37713;53.254;6.460;2023-04-02T08:51:28;8.80;99.90
51637;DHT22;37713;53.254;6.460;2023-04-02T08:54:46;9.00;99.90
51637;DHT22;37713;53.254;6.460;2023-04-02T08:59:37;9.30;99.90
51637;DHT22;37713;53.254;6.460;2023-04-02T09:02:28;9.50;99.90
51637;DHT22;37713;53.254;6.460;2023-04-02T09:04:57;9.50;99.90
51637;DHT22;37713;53.254;6.460;2023-04-02T09:07:24;9.60;99.90
51637;DHT22;37713;53.254;6.460;2023-04-02T09:09:51;9.50;99.90
51637;DHT22;37713;53.254;6.460;2023-04-02T09:12:19;9.20;99.90
51637;DHT22;37713;53.254;6.460;2023-04-02T09:17:40;8.80;99.90
51637;DHT22;37713;53.254;6.460;2023-04-02T09:20:16;8.80;99.90
51637;DHT22;37713;53.254;6.460;2023-04-02T09:22:48;8.60;99.90
51637;DHT22;37713;53.254;6.460;2023-04-02T09:25:27;8.40;99.90
51637;DHT22;37713;53.254;6.460;2023-04-02T09:27:56;8.40;99.90
51637;DHT22;37713;53.254;6.460;2023-04-02T09:32:59;8.80;99.90
51637;DHT22;37713;53.254;6.460;2023-04-02T09:35:31;8.90;99.90
51637;DHT22;37713;53.254;6.460;2023-04-02T09:40:49;8.80;99.90
51637;DHT22;37713;53.254;6.460;2023-04-02T09:43:24;8.60;99.90
51637;DHT22;37713;53.254;6.460;2023-04-02T09:51:13;8.20;99.90
51637;DHT22;37713;53.254;6.460;2023-04-02T09:53:48;8.30;99.90
51637;DHT22;37713;53.254;6.460;2023-04-02T09:56:22;8.30;99.90
51637;DHT22;37713;53.254;6.460;2023-04-02T10:01:41;8.40;99.90
51637;DHT22;37713;53.254;6.460;2023-04-02T10:06:57;8.60;99.90
51637;DHT22;37713;53.254;6.460;2023-04-02T10:09:35;8.60;99.90
51637;DHT22;37713;53.254;6.460;2023-04-02T10:12:05;8.70;99.90
51637;DHT22;37713;53.254;6.460;2023-04-02T10:14:36;8.70;99.90
51637;DHT22;37713;53.254;6.460;2023-04-02T10:19:44;8.50;99.90
51637;DHT22;37713;53.254;6.460;2023-04-02T10:22:20;8.30;99.90
51637;DHT22;37713;53.254;6.460;2023-04-02T10:24:47;8.30;99.90
51637;DHT22;37713;53.254;6.460;2023-04-02T10:35:41;8.40;99.90
51637;DHT22;37713;53.254;6.460;2023-04-02T10:41:20;8.40;99.90
51637;DHT22;37713;53.254;6.460;2023-04-02T10:49:18;8.30;99.90
51637;DHT22;37713;53.254;6.460;2023-04-02T10:54:38;8.30;99.90
51637;DHT22;37713;53.254;6.460;2023-04-02T10:57:33;8.30;99.90
51637;DHT22;37713;53.254;6.460;2023-04-02T11:03:05;8.20;99.90
51637;DHT22;37713;53.254;6.460;2023-04-02T11:05:50;8.30;99.90
51637;DHT22;37713;53.254;6.460;2023-04-02T11:08:22;8.40;99.90
51637;DHT22;37713;53.254;6.460;2023-04-02T11:11:04;8.40;99.90
51637;DHT22;37713;53.254;6.460;2023-04-02T11:16:30;8.50;99.90
51637;DHT22;37713;53.254;6.460;2023-04-02T11:21:54;8.50;99.90
51637;DHT22;37713;53.254;6.460;2023-04-02T11:29:43;8.50;99.90
51637;DHT22;37713;53.254;6.460;2023-04-02T11:42:34;8.70;99.90
51637;DHT22;37713;53.254;6.460;2023-04-02T11:50:39;8.80;99.90
51637;DHT22;37713;53.254;6.460;2023-04-02T12:09:27;9.20;99.90
51637;DHT22;37713;53.254;6.460;2023-04-02T12:11:58;9.30;99.90
51637;DHT22;37713;53.254;6.460;2023-04-02T12:19:58;9.40;99.90
51637;DHT22;37713;53.254;6.460;2023-04-02T12:22:28;9.20;99.90
51637;DHT22;37713;53.254;6.460;2023-04-02T12:25:02;9.30;99.90
51637;DHT22;37713;53.254;6.460;2023-04-02T12:27:29;9.40;99.90
51637;DHT22;37713;53.254;6.460;2023-04-02T12:30:18;9.30;99.90
51637;DHT22;37713;53.254;6.460;2023-04-02T12:32:44;9.40;99.90
51637;DHT22;37713;53.254;6.460;2023-04-02T12:35:40;9.40;99.90
51637;DHT22;37713;53.254;6.460;2023-04-02T12:38:21;9.50;99.90
51637;DHT22;37713;53.254;6.460;2023-04-02T12:40:51;9.50;99.90
51637;DHT22;37713;53.254;6.460;2023-04-02T12:43:25;9.60;99.90
51637;DHT22;37713;53.254;6.460;2023-04-02T12:45:54;9.40;99.90
51637;DHT22;37713;53.254;6.460;2023-04-02T12:48:20;9.40;99.90
51637;DHT22;37713;53.254;6.460;2023-04-02T12:50:47;9.50;99.90
51637;DHT22;37713;53.254;6.460;2023-04-02T12:53:28;9.60;99.90
51637;DHT22;37713;53.254;6.460;2023-04-02T12:55:54;9.70;99.90
51637;DHT22;37713;53.254;6.460;2023-04-02T12:58:36;9.80;99.90
51637;DHT22;37713;53.254;6.460;2023-04-02T13:01:12;9.70;99.90
51637;DHT22;37713;53.254;6.460;2023-04-02T13:03:38;9.80;99.90
51637;DHT22;37713;53.254;6.460;2023-04-02T13:06:21;9.60;99.90
51637;DHT22;37713;53.254;6.460;2023-04-02T13:08:49;9.60;99.90
51637;DHT22;37713;53.254;6.460;2023-04-02T13:11:15;9.60;99.90
51637;DHT22;37713;53.254;6.460;2023-04-02T13:13:44;9.70;99.90
51637;DHT22;37713;53.254;6.460;2023-04-02T13:18:40;9.60;99.90
51637;DHT22;37713;53.254;6.460;2023-04-02T13:21:23;9.70;99.90
51637;DHT22;37713;53.254;6.460;2023-04-02T13:23:50;9.70;99.90
51637;DHT22;37713;53.254;6.460;2023-04-02T13:26:28;9.60;99.90
51637;DHT22;37713;53.254;6.460;2023-04-02T13:31:41;9.70;99.90
51637;DHT22;37713;53.254;6.460;2023-04-02T13:34:07;9.70;99.90
51637;DHT22;37713;53.254;6.460;2023-04-02T13:36:32;9.80;99.90
51637;DHT22;37713;53.254;6.460;2023-04-02T13:38:58;9.60;99.90
51637;DHT22;37713;53.254;6.460;2023-04-02T13:41:29;9.70;99.90
51637;DHT22;37713;53.254;6.460;2023-04-02T13:44:00;9.60;99.90
51637;DHT22;37713;53.254;6.460;2023-04-02T13:46:32;9.60;99.90
51637;DHT22;37713;53.254;6.460;2023-04-02T13:48:58;9.60;99.90
51637;DHT22;37713;53.254;6.460;2023-04-02T13:51:37;9.60;99.90
51637;DHT22;37713;53.254;6.460;2023-04-02T13:54:06;9.50;99.90
51637;DHT22;37713;53.254;6.460;2023-04-02T13:56:34;9.50;99.90
51637;DHT22;37713;53.254;6.460;2023-04-02T13:59:00;9.50;99.90
51637;DHT22;37713;53.254;6.460;2023-04-02T14:01:26;9.50;99.90
51637;DHT22;37713;53.254;6.460;2023-04-02T14:03:53;9.50;99.90
51637;DHT22;37713;53.254;6.460;2023-04-02T14:09:09;9.50;99.90
51637;DHT22;37713;53.254;6.460;2023-04-02T14:12:03;9.60;99.90
51637;DHT22;37713;53.254;6.460;2023-04-02T14:23:09;9.60;99.90
51637;DHT22;37713;53.254;6.460;2023-04-02T14:25:53;9.70;99.90
51637;DHT22;37713;53.254;6.460;2023-04-02T14:31:16;9.70;99.90
51637;DHT22;37713;53.254;6.460;2023-04-02T14:42:43;9.60;99.90
51637;DHT22;37713;53.254;6.460;2023-04-02T14:50:47;9.60;99.90
51637;DHT22;37713;53.254;6.460;2023-04-02T14:53:25;9.60;99.90
51637;DHT22;37713;53.254;6.460;2023-04-02T14:55:54;9.60;99.90
51637;DHT22;37713;53.254;6.460;2023-04-02T14:58:23;9.70;99.90
51637;DHT22;37713;53.254;6.460;2023-04-02T15:03:29;9.80;99.90
51637;DHT22;37713;53.254;6.460;2023-04-02T15:06:01;9.80;99.90
51637;DHT22;37713;53.254;6.460;2023-04-02T15:08:30;9.70;99.90
51637;DHT22;37713;53.254;6.460;2023-04-02T15:11:15;9.60;99.90
51637;DHT22;37713;53.254;6.460;2023-04-02T15:13:49;9.70;99.90
51637;DHT22;37713;53.254;6.460;2023-04-02T15:16:21;9.80;99.90
51637;DHT22;37713;53.254;6.460;2023-04-02T15:18:54;9.60;99.90
51637;DHT22;37713;53.254;6.460;2023-04-02T15:24:04;9.50;99.90
51637;DHT22;37713;53.254;6.460;2023-04-02T15:31:39;9.50;99.90
51637;DHT22;37713;53.254;6.460;2023-04-02T15:34:31;9.40;99.90
51637;DHT22;37713;53.254;6.460;2023-04-02T15:40:50;9.40;99.90
51637;DHT22;37713;53.254;6.460;2023-04-02T15:59:37;8.90;99.90
51637;DHT22;37713;53.254;6.460;2023-04-02T16:12:19;8.90;99.90
51637;DHT22;37713;53.254;6.460;2023-04-02T16:14:47;8.80;99.90
51637;DHT22;37713;53.254;6.460;2023-04-02T16:17:27;8.80;99.90
51637;DHT22;37713;53.254;6.460;2023-04-02T16:20:06;8.70;99.90
51637;DHT22;37713;53.254;6.460;2023-04-02T16:22:38;8.70;99.90
51637;DHT22;37713;53.254;6.460;2023-04-02T16:25:15;8.60;99.90
51637;DHT22;37713;53.254;6.460;2023-04-02T16:30:51;8.70;99.90
51637;DHT22;37713;53.254;6.460;2023-04-02T16:33:36;8.70;99.90
51637;DHT22;37713;53.254;6.460;2023-04-02T16:39:00;8.50;99.90
51637;DHT22;37713;53.254;6.460;2023-04-02T17:00:38;7.90;99.90
51637;DHT22;37713;53.254;6.460;2023-04-02T17:11:40;7.70;99.90
51637;DHT22;37713;53.254;6.460;2023-04-02T17:14:15;7.60;99.90
51637;DHT22;37713;53.254;6.460;2023-04-02T17:16:50;7.50;99.90
51637;DHT22;37713;53.254;6.460;2023-04-02T17:19:18;7.40;99.90
51637;DHT22;37713;53.254;6.460;2023-04-02T17:21:49;7.40;99.90
51637;DHT22;37713;53.254;6.460;2023-04-02T17:24:27;7.30;99.90
51637;DHT22;37713;53.254;6.460;2023-04-02T17:27:12;7.20;99.90
51637;DHT22;37713;53.254;6.460;2023-04-02T17:29:44;7.10;99.90
51637;DHT22;37713;53.254;6.460;2023-04-02T17:32:29;7.00;99.90
51637;DHT22;37713;53.254;6.460;2023-04-02T17:34:56;6.90;99.90
51637;DHT22;37713;53.254;6.460;2023-04-02T17:37:37;6.80;99.90
51637;DHT22;37713;53.254;6.460;2023-04-02T17:40:29;6.70;99.90
51637;DHT22;37713;53.254;6.460;2023-04-02T17:48:51;6.40;99.90
51637;DHT22;37713;53.254;6.460;2023-04-02T17:52:08;6.40;99.90
51637;DHT22;37713;53.254;6.460;2023-04-02T18:02:58;6.00;99.90
51637;DHT22;37713;53.254;6.460;2023-04-02T18:13:25;5.60;99.90
51637;DHT22;37713;53.254;6.460;2023-04-02T18:15:57;5.50;99.90
51637;DHT22;37713;53.254;6.460;2023-04-02T18:21:40;5.40;99.90
51637;DHT22;37713;53.254;6.460;2023-04-02T18:27:06;5.10;99.90
51637;DHT22;37713;53.254;6.460;2023-04-02T18:29:38;5.00;99.90
51637;DHT22;37713;53.254;6.460;2023-04-02T18:37:37;4.80;99.90
51637;DHT22;37713;53.254;6.460;2023-04-02T18:43:18;4.60;99.90
51637;DHT22;37713;53.254;6.460;2023-04-02T18:46:03;4.50;99.90
51637;DHT22;37713;53.254;6.460;2023-04-02T18:48:51;4.40;99.90
51637;DHT22;37713;53.254;6.460;2023-04-02T18:51:25;4.40;99.90
51637;DHT22;37713;53.254;6.460;2023-04-02T18:54:12;4.30;99.90
51637;DHT22;37713;53.254;6.460;2023-04-02T18:56:41;4.20;99.90
51637;DHT22;37713;53.254;6.460;2023-04-02T18:59:27;4.10;99.90
51637;DHT22;37713;53.254;6.460;2023-04-02T19:01:55;4.10;99.90
51637;DHT22;37713;53.254;6.460;2023-04-02T19:04:27;4.00;99.90
51637;DHT22;37713;53.254;6.460;2023-04-02T19:07:03;4.00;99.90
51637;DHT22;37713;53.254;6.460;2023-04-02T19:09:34;3.90;99.90
51637;DHT22;37713;53.254;6.460;2023-04-02T19:12:05;3.90;99.90
51637;DHT22;37713;53.254;6.460;2023-04-02T19:14:31;3.80;99.90
51637;DHT22;37713;53.254;6.460;2023-04-02T19:17:06;3.80;99.90
51637;DHT22;37713;53.254;6.460;2023-04-02T19:19:41;3.70;99.90
51637;DHT22;37713;53.254;6.460;2023-04-02T19:25:04;3.60;99.90
51637;DHT22;37713;53.254;6.460;2023-04-02T19:36:04;3.40;99.90
51637;DHT22;37713;53.254;6.460;2023-04-02T19:39:18;3.40;99.90
51637;DHT22;37713;53.254;6.460;2023-04-02T19:43:52;3.30;99.90
51637;DHT22;37713;53.254;6.460;2023-04-02T19:46:19;3.20;99.90
51637;DHT22;37713;53.254;6.460;2023-04-02T19:49:00;3.20;99.90
51637;DHT22;37713;53.254;6.460;2023-04-02T19:51:28;3.10;99.90
51637;DHT22;37713;53.254;6.460;2023-04-02T19:53:54;3.10;99.90
51637;DHT22;37713;53.254;6.460;2023-04-02T19:56:20;3.10;99.90
51637;DHT22;37713;53.254;6.460;2023-04-02T19:58:47;3.00;99.90
51637;DHT22;37713;53.254;6.460;2023-04-02T20:01:13;3.00;99.90
51637;DHT22;37713;53.254;6.460;2023-04-02T20:03:39;3.00;99.90
51637;DHT22;37713;53.254;6.460;2023-04-02T20:06:05;3.00;99.90
51637;DHT22;37713;53.254;6.460;2023-04-02T20:08:30;2.90;99.90
51637;DHT22;37713;53.254;6.460;2023-04-02T20:10:57;2.90;99.90
51637;DHT22;37713;53.254;6.460;2023-04-02T20:13:23;2.90;99.90
51637;DHT22;37713;53.254;6.460;2023-04-02T20:15:49;2.90;99.90
51637;DHT22;37713;53.254;6.460;2023-04-02T20:18:16;2.80;99.90
51637;DHT22;37713;53.254;6.460;2023-04-02T20:20:46;2.80;99.90
51637;DHT22;37713;53.254;6.460;2023-04-02T20:23:14;2.80;99.90
51637;DHT22;37713;53.254;6.460;2023-04-02T20:25:47;2.80;99.90
51637;DHT22;37713;53.254;6.460;2023-04-02T20:28:21;2.80;99.90
51637;DHT22;37713;53.254;6.460;2023-04-02T20:30:47;2.80;99.90
51637;DHT22;37713;53.254;6.460;2023-04-02T20:33:23;2.70;99.90
51637;DHT22;37713;53.254;6.460;2023-04-02T20:35:50;2.70;99.90
51637;DHT22;37713;53.254;6.460;2023-04-02T20:38:17;2.70;99.90
51637;DHT22;37713;53.254;6.460;2023-04-02T20:40:43;2.60;99.90
51637;DHT22;37713;53.254;6.460;2023-04-02T20:43:11;2.60;99.90
51637;DHT22;37713;53.254;6.460;2023-04-02T20:45:37;2.60;99.90
51637;DHT22;37713;53.254;6.460;2023-04-02T20:48:03;2.60;99.90
51637;DHT22;37713;53.254;6.460;2023-04-02T20:50:29;2.60;99.90
51637;DHT22;37713;53.254;6.460;2023-04-02T20:52:57;2.50;99.90
51637;DHT22;37713;53.254;6.460;2023-04-02T20:55:23;2.60;99.90
51637;DHT22;37713;53.254;6.460;2023-04-02T20:57:49;2.50;99.90
51637;DHT22;37713;53.254;6.460;2023-04-02T21:00:15;2.50;99.90
51637;DHT22;37713;53.254;6.460;2023-04-02T21:02:41;2.60;99.90
51637;DHT22;37713;53.254;6.460;2023-04-02T21:05:07;2.50;99.90
51637;DHT22;37713;53.254;6.460;2023-04-02T21:07:33;2.60;99.90
51637;DHT22;37713;53.254;6.460;2023-04-02T21:09:59;2.60;99.90
51637;DHT22;37713;53.254;6.460;2023-04-02T21:12:24;2.60;99.90
51637;DHT22;37713;53.254;6.460;2023-04-02T21:14:50;2.60;99.90
51637;DHT22;37713;53.254;6.460;2023-04-02T21:17:22;2.60;99.90
51637;DHT22;37713;53.254;6.460;2023-04-02T21:19:47;2.60;99.90
51637;DHT22;37713;53.254;6.460;2023-04-02T21:22:13;2.60;99.90
51637;DHT22;37713;53.254;6.460;2023-04-02T21:24:39;2.60;99.90
51637;DHT22;37713;53.254;6.460;2023-04-02T21:27:05;2.60;99.90
51637;DHT22;37713;53.254;6.460;2023-04-02T21:29:31;2.60;99.90
51637;DHT22;37713;53.254;6.460;2023-04-02T21:31:56;2.60;99.90
51637;DHT22;37713;53.254;6.460;2023-04-02T21:34:22;2.60;99.90
51637;DHT22;37713;53.254;6.460;2023-04-02T21:36:48;2.60;99.90
51637;DHT22;37713;53.254;6.460;2023-04-02T21:39:17;2.60;99.90
51637;DHT22;37713;53.254;6.460;2023-04-02T21:41:44;2.60;99.90
51637;DHT22;37713;53.254;6.460;2023-04-02T21:44:15;2.60;99.90
51637;DHT22;37713;53.254;6.460;2023-04-02T21:46:41;2.60;99.90
51637;DHT22;37713;53.254;6.460;2023-04-02T21:49:10;2.60;99.90
51637;DHT22;37713;53.254;6.460;2023-04-02T21:51:37;2.60;99.90
51637;DHT22;37713;53.254;6.460;2023-04-02T21:54:04;2.60;99.90
51637;DHT22;37713;53.254;6.460;2023-04-02T21:56:32;2.50;99.90
51637;DHT22;37713;53.254;6.460;2023-04-02T21:58:59;2.50;99.90
51637;DHT22;37713;53.254;6.460;2023-04-02T22:01:31;2.50;99.90
51637;DHT22;37713;53.254;6.460;2023-04-02T22:04:00;2.40;99.90
51637;DHT22;37713;53.254;6.460;2023-04-02T22:06:30;2.40;99.90